Grandes-Piles, Canada
Current Conditions -  °F | °C
As of 10:00 AM on Monday 24 Nov 2014 (Local Time) from CYRQ Reporting Station
Light Rain Light Rain  
Wind Chill: 41°   Ceiling: 1300
Heat Index: 46°   Visibility: 9mi
Dew Point: 46°   Wind: 10mph
Humidity: 100%   Direction: 140°SE
Pressure: 29.46"   Gusts: 18mph
Location:  46.68°N, 72.72°W
Report Text: CYRQ 241500Z AUTO 14009G16KT 100V170 9SM -RA BKN013 OVC034 08/08 A2946 RMK PRESFR SLP978
Loading
Personal Weather Stations






























Interactive Weather Map New forecast layout! Learn more

10-Day Weather Forecast

Advertisements
Track Severe Weather on mobile